24.2°F
Current conditions from King Hill
Updated every 5 minutes
 
  Wednesday April 16, 2014

Station Historical Data
Daily Summary for April 12, 2012 Units:  Metric    English   Both
« Previous Day
Next Day »
Daily Weekly Monthly Yearly Custom
  High: Low: Average:
Temperature: 12.4 °C 1.9 °C 5.4 °C
Dew Point: 2.8 °C -0.9 °C 0.7 °C
Humidity: 89% 47% 73%
Wind Speed: 17.7km/h 0km/h 5.3km/h
Wind Gust: 29km/h - -
Wind- - WSW
Pressure: 1018.2 hPa 1013.1 hPa -
Precipitation: 0.3 mm    
Historical Graphs
 
 
Tabular Data for April 12, 2012
Time Temperature Dew Point Pressure Wind Wind Speed Wind Gust Humidity Daily Rainfall
00:00 3.8 °C 1.3 °C 1013.1 hPa Calm   6.4 km/h 84% 1 mm
00:05 3.7 °C 1.3 °C 1013.1 hPa Calm   6.4 km/h 84% 0 mm
00:15 3.6 °C 1.1 °C 1013.1 hPa Calm     84% 0 mm
00:20 3.6 °C 1.3 °C 1013.1 hPa Calm     85% 0 mm
00:30 3.5 °C 1.2 °C 1013.4 hPa Calm     85% 0 mm
00:35 3.6 °C 1.3 °C 1013.4 hPa Calm     85% 0 mm
00:45 3.7 °C 1.4 °C 1013.1 hPa Calm     85% 0 mm
00:50 3.6 °C 1.3 °C 1013.4 hPa Calm   1.6 km/h 85% 0 mm
01:00 3.4 °C 1.2 °C 1013.4 hPa Calm     85% 0 mm
01:05 3.3 °C 1.1 °C 1013.4 hPa Calm     85% 0 mm
01:10 3.2 °C 0.9 °C 1013.4 hPa Calm     85% 0 mm
01:15 3.1 °C 0.8 °C 1013.4 hPa Calm     85% 0 mm
01:20 3 °C 0.9 °C 1013.4 hPa Calm     86% 0 mm
01:25 3 °C 0.9 °C 1013.4 hPa Calm     86% 0 mm
01:30 2.8 °C 0.6 °C 1013.4 hPa Calm     85% 0 mm
01:35 2.7 °C 0.6 °C 1013.4 hPa Calm     86% 0 mm
01:40 2.7 °C 0.6 °C 1013.4 hPa Calm     86% 0 mm
01:50 2.7 °C 0.6 °C 1013.4 hPa Calm     86% 0 mm
01:55 2.7 °C 0.6 °C 1013.4 hPa Calm     86% 0 mm
02:05 2.6 °C 0.5 °C 1013.4 hPa Calm   3.2 km/h 86% 0 mm
02:10 2.6 °C 0.5 °C 1013.4 hPa Calm   3.2 km/h 86% 0 mm
02:15 2.6 °C 0.4 °C 1013.4 hPa Calm     86% 0 mm
02:20 2.5 °C 0.4 °C 1013.4 hPa Calm     86% 0 mm
02:25 2.4 °C 0.3 °C 1013.4 hPa Calm     86% 0 mm
02:30 2.3 °C 0.2 °C 1013.4 hPa Calm     86% 0 mm
02:35 2.4 °C 0.3 °C 1013.4 hPa Calm     86% 0 mm
02:45 2.4 °C 0.3 °C 1013.4 hPa Calm     86% 0 mm
02:50 2.4 °C 0.3 °C 1013.4 hPa Calm     86% 0 mm
02:55 2.5 °C 0.4 °C 1013.4 hPa Calm     86% 0 mm
03:00 2.5 °C 0.4 °C 1013.4 hPa Calm     86% 0 mm
03:05 2.6 °C 0.4 °C 1013.4 hPa Calm     86% 0 mm
03:10 2.5 °C 0.4 °C 1013.4 hPa Calm     86% 0 mm
03:15 2.4 °C 0.3 °C 1013.4 hPa Calm   4.8 km/h 86% 0 mm
03:20 2.4 °C 0.3 °C 1013.4 hPa Calm   4.8 km/h 86% 0 mm
03:25 2.3 °C 0.2 °C 1013.4 hPa Calm   1.6 km/h 86% 0 mm
03:30 2.3 °C 0.3 °C 1013.4 hPa Calm     87% 0 mm
03:40 2.1 °C -0.1 °C 1013.4 hPa Calm     86% 0 mm
03:45 1.9 °C 0 °C 1013.4 hPa Calm   1.6 km/h 87% 0 mm
03:50 2.1 °C 0.2 °C 1013.4 hPa Calm   6.4 km/h 87% 0 mm
03:54 2.2 °C 0.4 °C 1013.4 hPa Calm   6.4 km/h 88% 0 mm
04:00 2.2 °C 0.4 °C 1013.4 hPa Calm     88% 0 mm
04:05 2.3 °C 0.6 °C 1013.4 hPa Calm   4.8 km/h 88% 0 mm
04:10 2.4 °C 0.7 °C 1013.8 hPa Calm   4.8 km/h 88% 0 mm
04:15 2.5 °C 0.7 °C 1013.8 hPa Calm   3.2 km/h 88% 0 mm
04:20 2.6 °C 0.8 °C 1013.8 hPa Calm   3.2 km/h 88% 0 mm
04:25 2.6 °C 0.8 °C 1013.8 hPa Calm     88% 0 mm
04:30 2.5 °C 0.7 °C 1013.8 hPa Calm     88% 0 mm
04:40 2.4 °C 0.8 °C 1013.8 hPa Calm     89% 0 mm
04:50 2.6 °C 0.9 °C 1014.1 hPa Calm     89% 0 mm
04:55 2.6 °C 0.9 °C 1014.1 hPa Calm   6.4 km/h 89% 0 mm
05:00 2.5 °C 0.9 °C 1014.1 hPa Calm   6.4 km/h 89% 0 mm
05:05 2.5 °C 0.9 °C 1014.1 hPa Calm     89% 0 mm
05:10 2.5 °C 0.9 °C 1014.1 hPa Calm     89% 0 mm
05:14 2.4 °C 0.8 °C 1014.1 hPa Calm     89% 0 mm
05:20 2.5 °C 0.9 °C 1014.4 hPa NNE 1.6 km/h 8 km/h 89% 0 mm
05:25 2.5 °C 0.9 °C 1014.4 hPa NNE 1.6 km/h 8 km/h 89% 0 mm
05:29 2.5 °C 0.9 °C 1014.4 hPa Calm   8 km/h 89% 0 mm
05:35 2.6 °C 0.8 °C 1014.4 hPa Calm   6.4 km/h 88% 0 mm
05:45 2.5 °C 0.7 °C 1014.4 hPa NNE 1.6 km/h 9.7 km/h 88% 0 mm
05:49 2.5 °C 0.7 °C 1014.4 hPa Calm   8 km/h 88% 0 mm
05:55 2.5 °C 0.7 °C 1014.8 hPa NE 1.6 km/h 8 km/h 88% 0 mm
06:05 2.4 °C 0.7 °C 1014.8 hPa North 1.6 km/h 9.7 km/h 88% 0 mm
06:10 2.4 °C 0.5 °C 1014.8 hPa NNE 1.6 km/h 6.4 km/h 87% 0 mm
06:15 2.4 °C 0.4 °C 1014.8 hPa Calm   6.4 km/h 87% 0 mm
06:20 2.3 °C 0.4 °C 1014.8 hPa NNE 1.6 km/h 6.4 km/h 87% 0 mm
06:25 2.3 °C 0.4 °C 1015.1 hPa Calm   6.4 km/h 87% 0 mm
06:30 2.3 °C 0.6 °C 1015.1 hPa Calm   4.8 km/h 88% 0 mm
06:35 2.3 °C 0.6 °C 1015.1 hPa Calm   4.8 km/h 88% 0 mm
06:45 2.3 °C 0.5 °C 1015.1 hPa Calm   3.2 km/h 88% 0 mm
06:55 2.3 °C 0.6 °C 1015.5 hPa Calm   3.2 km/h 88% 0 mm
06:59 2.3 °C 0.5 °C 1015.5 hPa Calm   4.8 km/h 88% 0 mm
07:05 2.3 °C 0.6 °C 1015.5 hPa Calm   4.8 km/h 88% 0 mm
07:09 2.4 °C 0.4 °C 1015.5 hPa North 1.6 km/h 8 km/h 87% 0 mm
07:15 2.4 °C 0.5 °C 1015.8 hPa Calm   8 km/h 87% 0 mm
07:20 2.5 °C 0.6 °C 1015.8 hPa Calm   4.8 km/h 87% 0 mm
07:25 2.6 °C 0.4 °C 1015.8 hPa North 1.6 km/h 4.8 km/h 86% 0 mm
07:29 2.7 °C 0.6 °C 1015.8 hPa Calm   4.8 km/h 86% 0 mm
07:35 2.8 °C 0.6 °C 1015.8 hPa North 1.6 km/h 6.4 km/h 85% 0 mm
07:45 3.1 °C 0.7 °C 1015.8 hPa Calm   3.2 km/h 84% 0 mm
07:50 3.2 °C 0.6 °C 1015.8 hPa Calm   3.2 km/h 83% 0 mm
07:54 3.3 °C 0.6 °C 1015.8 hPa North 4.8 km/h 9.7 km/h 82% 0 mm
08:00 3.3 °C 0.4 °C 1015.8 hPa NW 4.8 km/h 9.7 km/h 81% 0 mm
08:05 3.4 °C 0.3 °C 1016.1 hPa Calm   9.7 km/h 80% 0 mm
08:10 3.5 °C 0.6 °C 1016.1 hPa NNE 1.6 km/h 9.7 km/h 81% 0 mm
08:15 3.6 °C 0.7 °C 1016.1 hPa NW 1.6 km/h 6.4 km/h 81% 0 mm
08:20 3.6 °C 0.3 °C 1016.1 hPa North 3.2 km/h 9.7 km/h 79% 0 mm
08:25 3.6 °C 0.1 °C 1016.1 hPa North 1.6 km/h 9.7 km/h 78% 0 mm
08:30 3.7 °C 0.6 °C 1016.1 hPa Calm   6.4 km/h 80% 0 mm
08:35 3.8 °C 0.5 °C 1016.1 hPa NW 1.6 km/h 9.7 km/h 79% 0 mm
08:40 3.9 °C 0.4 °C 1016.1 hPa NNE 3.2 km/h 11.3 km/h 78% 0 mm
08:45 4.1 °C 0.6 °C 1016.5 hPa North 1.6 km/h 11.3 km/h 78% 0 mm
08:50 4.1 °C 0.6 °C 1016.5 hPa NW 1.6 km/h 12.9 km/h 78% 0 mm
08:55 4.2 °C 0.7 °C 1016.5 hPa NW 1.6 km/h 12.9 km/h 78% 0 mm
09:05 4.4 °C 0.9 °C 1016.5 hPa NW 6.4 km/h 9.7 km/h 78% 0 mm
09:15 4.3 °C 0.8 °C 1016.5 hPa NW 6.4 km/h 11.3 km/h 78% 0 mm
09:20 4.4 °C 0.9 °C 1016.5 hPa NNW 4.8 km/h 11.3 km/h 78% 0 mm
09:25 4.4 °C 0.8 °C 1016.8 hPa NW 4.8 km/h 11.3 km/h 77% 0 mm
09:29 4.4 °C 0.6 °C 1016.8 hPa NW 4.8 km/h 12.9 km/h 76% 0 mm
09:35 4.4 °C 0.8 °C 1016.8 hPa Calm   12.9 km/h 77% 0 mm
09:45 4.4 °C 0.4 °C 1016.8 hPa NW 4.8 km/h 11.3 km/h 75% 0 mm
09:50 4.7 °C 0.8 °C 1016.8 hPa NW 3.2 km/h 11.3 km/h 76% 0 mm
09:54 4.9 °C 0.8 °C 1016.8 hPa NW 8 km/h 12.9 km/h 75% 0 mm
09:59 5.2 °C 1.1 °C 1016.8 hPa NNW 6.4 km/h 12.9 km/h 75% 0 mm
10:05 5.5 °C 1.1 °C 1017.2 hPa NNW 4.8 km/h 14.5 km/h 73% 0 mm
10:10 5.6 °C 0.9 °C 1017.2 hPa WNW 6.4 km/h 14.5 km/h 72% 0 mm
10:15 5.9 °C 1.4 °C 1017.2 hPa NNW 3.2 km/h 12.9 km/h 73% 0 mm
10:20 6.1 °C 1 °C 1017.2 hPa NW 3.2 km/h 12.9 km/h 70% 0 mm
10:25 6.3 °C 1.3 °C 1017.2 hPa NNW 8 km/h 12.9 km/h 70% 0 mm
10:29 6.4 °C 1.2 °C 1017.2 hPa NW 8 km/h 16.1 km/h 69% 0 mm
10:35 6.7 °C 1.6 °C 1017.2 hPa NW 8 km/h 16.1 km/h 70% 0 mm
10:40 6.9 °C 1.8 °C 1017.2 hPa Calm   16.1 km/h 70% 0 mm
10:44 7.2 °C 1.5 °C 1017.2 hPa NNW 4.8 km/h 14.5 km/h 67% 0 mm
10:50 7.2 °C 2.1 °C 1017.2 hPa WNW 4.8 km/h 16.1 km/h 70% 0 mm
10:55 7.6 °C 1.9 °C 1017.2 hPa North 3.2 km/h 16.1 km/h 67% 0 mm
11:05 7.4 °C 1.7 °C 1016.8 hPa NW 6.4 km/h 12.9 km/h 67% 0 mm
11:10 7.3 °C 1.2 °C 1017.2 hPa NW 11.3 km/h 19.3 km/h 65% 0 mm
11:15 7.3 °C 1.6 °C 1017.2 hPa NW 6.4 km/h 20.9 km/h 67% 0 mm
11:19 7.4 °C 1.3 °C 1017.2 hPa NW 9.7 km/h 20.9 km/h 65% 0 mm
11:25 7.6 °C 1.4 °C 1016.8 hPa NW 9.7 km/h 17.7 km/h 65% 0 mm
11:30 7.8 °C 2.3 °C 1016.8 hPa NW 4.8 km/h 17.7 km/h 68% 0 mm
11:35 8.3 °C 1.9 °C 1016.8 hPa NNW 6.4 km/h 14.5 km/h 64% 0 mm
11:45 8.1 °C 1.4 °C 1016.8 hPa NNW 8 km/h 20.9 km/h 63% 0 mm
11:49 8.3 °C 1.9 °C 1016.8 hPa NW 8 km/h 20.9 km/h 64% 0 mm
11:54 8.6 °C 1.7 °C 1016.8 hPa NW 6.4 km/h 19.3 km/h 62% 0 mm
12:00 8.8 °C 1.9 °C 1016.8 hPa NNW 6.4 km/h 19.3 km/h 62% 0 mm
12:05 9.1 °C 1.7 °C 1016.8 hPa NNE 6.4 km/h 19.3 km/h 60% 0 mm
12:15 9.6 °C 2.2 °C 1016.8 hPa North 3.2 km/h 14.5 km/h 60% 0 mm
12:24 9.4 °C 2.2 °C 1016.5 hPa NNW 3.2 km/h 17.7 km/h 61% 0 mm
12:30 9.2 °C 1.6 °C 1016.5 hPa NW 8 km/h 17.7 km/h 59% 0 mm
12:35 9.4 °C 2.2 °C 1016.5 hPa NNW 8 km/h 19.3 km/h 61% 0 mm
12:40 9.8 °C 1.7 °C 1016.5 hPa NNW 3.2 km/h 19.3 km/h 57% 0 mm
12:44 10.2 °C 2.8 °C 1016.5 hPa NNW 1.6 km/h 16.1 km/h 60% 0 mm
12:50 10.2 °C 2.3 °C 1016.5 hPa NNW 6.4 km/h 19.3 km/h 58% 0 mm
13:00 10.3 °C 1.9 °C 1016.5 hPa North 6.4 km/h 16.1 km/h 56% 0 mm
13:09 10.3 °C 2.1 °C 1016.5 hPa North 3.2 km/h 17.7 km/h 57% 0 mm
13:14 10.6 °C 2.2 °C 1016.5 hPa NNW 9.7 km/h 17.7 km/h 56% 0 mm
13:19 10.5 °C 1.6 °C 1016.5 hPa NW 14.5 km/h 22.5 km/h 54% 0 mm
13:25 10.7 °C 2.2 °C 1016.5 hPa North 6.4 km/h 22.5 km/h 56% 0 mm
13:29 10.8 °C 2.7 °C 1016.5 hPa NNW 9.7 km/h 20.9 km/h 57% 0 mm
13:35 11.1 °C 2.3 °C 1016.5 hPa NNW 9.7 km/h 20.9 km/h 55% 0 mm
13:44 11.2 °C 1.7 °C 1016.5 hPa North 6.4 km/h 19.3 km/h 52% 0 mm
13:49 10.7 °C 2 °C 1016.5 hPa NW 12.9 km/h 27.4 km/h 55% 0 mm
13:55 10.6 °C 1.4 °C 1016.5 hPa NW 12.9 km/h 27.4 km/h 53% 0 mm
14:05 10.9 °C 1.7 °C 1016.1 hPa NW 17.7 km/h 29 km/h 53% 0 mm
14:10 11.2 °C 2.3 °C 1016.1 hPa NNW 9.7 km/h 29 km/h 54% 0 mm
14:14 11.3 °C 1.8 °C 1016.1 hPa NNE 6.4 km/h 20.9 km/h 52% 0 mm
14:19 11.1 °C 1.9 °C 1016.1 hPa NW 11.3 km/h 24.1 km/h 53% 0 mm
14:24 11.7 °C 2.7 °C 1016.1 hPa NNE 4.8 km/h 25.7 km/h 54% 0 mm
14:30 12.3 °C 2.7 °C 1016.1 hPa North 6.4 km/h 25.7 km/h 52% 0 mm
14:35 12.4 °C 2.3 °C 1016.1 hPa NNW 8 km/h 20.9 km/h 50% 0 mm
14:45 12.4 °C 2.3 °C 1016.1 hPa North 6.4 km/h 24.1 km/h 50% 0 mm
14:50 12 °C 1.9 °C 1016.1 hPa NNW 6.4 km/h 24.1 km/h 50% 0 mm
14:59 11.6 °C 1.8 °C 1016.1 hPa North 8 km/h 24.1 km/h 51% 0 mm
15:10 11.9 °C 1.3 °C 1016.1 hPa NW 9.7 km/h 24.1 km/h 48% 0 mm
15:15 11.8 °C 1.1 °C 1016.1 hPa North 6.4 km/h 24.1 km/h 48% 0 mm
15:24 10.9 °C 0 °C 1016.1 hPa North 1.6 km/h 22.5 km/h 47% 0 mm
15:30 10.6 °C 0.3 °C 1016.1 hPa North 6.4 km/h 14.5 km/h 49% 0 mm
15:35 10.3 °C 0.1 °C 1016.1 hPa North 6.4 km/h 14.5 km/h 49% 0 mm
15:44 10.5 °C 0.5 °C 1015.8 hPa NNW 3.2 km/h 20.9 km/h 50% 0 mm
15:50 10.6 °C 0.8 °C 1015.8 hPa NNE 4.8 km/h 20.9 km/h 51% 0 mm
15:59 10.2 °C 0.2 °C 1015.8 hPa NNW 4.8 km/h 17.7 km/h 50% 0 mm
16:04 10.1 °C 0.4 °C 1016.1 hPa NNW 1.6 km/h 17.7 km/h 51% 0 mm
16:09 9.8 °C 0.4 °C 1016.1 hPa NE 6.4 km/h 19.3 km/h 52% 0 mm
16:15 9.6 °C 0.7 °C 1016.1 hPa NNE 3.2 km/h 19.3 km/h 54% 0 mm
16:20 9.2 °C 0.4 °C 1016.1 hPa NNE 3.2 km/h 17.7 km/h 54% 0 mm
16:30 8.8 °C -0.2 °C 1016.1 hPa NNE 1.6 km/h 14.5 km/h 53% 0 mm
16:35 8.9 °C -0.2 °C 1016.1 hPa North 1.6 km/h 16.1 km/h 53% 0 mm
16:40 9.1 °C 0 °C 1016.1 hPa Calm   16.1 km/h 53% 0 mm
16:45 9.3 °C -0.3 °C 1016.1 hPa Calm   11.3 km/h 51% 0 mm
16:54 9.3 °C -0.1 °C 1016.5 hPa North 1.6 km/h 19.3 km/h 52% 0 mm
17:00 9.1 °C 0.5 °C 1016.5 hPa NE 4.8 km/h 19.3 km/h 55% 0 mm
17:09 8.5 °C 1.2 °C 1016.5 hPa Calm   16.1 km/h 60% 0 mm
17:15 8.3 °C 1.3 °C 1016.5 hPa Calm   6.4 km/h 61% 0 mm
17:19 8.2 °C 1.2 °C 1016.5 hPa Calm   6.4 km/h 61% 0 mm
17:24 8.2 °C 1.1 °C 1016.5 hPa Calm   4.8 km/h 61% 0 mm
17:30 8.2 °C 0.9 °C 1016.5 hPa Calm   4.8 km/h 60% 0 mm
17:39 8.1 °C 1.1 °C 1016.5 hPa Calm   12.9 km/h 61% 0 mm
17:45 8.1 °C 0.8 °C 1016.5 hPa NE 3.2 km/h 14.5 km/h 60% 0 mm
17:55 7.9 °C 1.1 °C 1016.8 hPa Calm   11.3 km/h 62% 0 mm
17:59 8 °C 1.4 °C 1016.8 hPa Calm   6.4 km/h 63% 0 mm
18:05 7.9 °C 0.9 °C 1016.8 hPa Calm     61% 0 mm
18:09 7.8 °C 1 °C 1016.8 hPa Calm     62% 0 mm
18:14 7.8 °C 0.9 °C 1016.8 hPa Calm     62% 0 mm
18:19 7.8 °C 0.9 °C 1016.8 hPa Calm   6.4 km/h 62% 0 mm
18:24 7.9 °C 1.1 °C 1016.8 hPa Calm   6.4 km/h 62% 0 mm
18:29 8.3 °C 1.3 °C 1016.8 hPa Calm   4.8 km/h 61% 0 mm
18:34 8.6 °C 0.8 °C 1016.8 hPa ENE 1.6 km/h 4.8 km/h 58% 0 mm
18:40 8.8 °C 1 °C 1016.8 hPa Calm   4.8 km/h 58% 0 mm
18:44 9 °C 0.9 °C 1016.8 hPa Calm   4.8 km/h 57% 0 mm
18:49 9 °C 0.9 °C 1016.8 hPa Calm   1.6 km/h 57% 0 mm
18:54 8.8 °C 1.3 °C 1016.8 hPa Calm   1.6 km/h 59% 0 mm
18:59 8.7 °C 1.2 °C 1016.8 hPa Calm     59% 0 mm
19:04 8.7 °C 1.1 °C 1016.8 hPa NNE 8 km/h 17.7 km/h 59% 0 mm
19:09 8.4 °C 1.6 °C 1017.2 hPa NNE 4.8 km/h 17.7 km/h 62% 0 mm
19:14 7.9 °C 1.5 °C 1016.8 hPa WNW 1.6 km/h 14.5 km/h 64% 0.3 mm
19:19 7.6 °C 0.7 °C 1016.8 hPa Calm   8 km/h 62% 0.3 mm
19:25 7.3 °C 1.1 °C 1016.8 hPa Calm   8 km/h 65% 0.3 mm
19:30 6.8 °C 1.9 °C 1016.8 hPa Calm   1.6 km/h 71% 0.3 mm
19:35 6.4 °C 1.6 °C 1016.8 hPa Calm     71% 0.3 mm
19:45 5.6 °C 1.2 °C 1017.2 hPa Calm     73% 0.3 mm
19:54 5.1 °C 0.6 °C 1017.2 hPa Calm   3.2 km/h 73% 0.3 mm
19:59 4.9 °C 0.5 °C 1017.2 hPa Calm   3.2 km/h 73% 0.3 mm
20:04 4.7 °C 0.5 °C 1017.2 hPa Calm     74% 0.3 mm
20:10 4.5 °C 0.4 °C 1017.2 hPa Calm     75% 0.3 mm
20:14 4.4 °C 0.3 °C 1017.2 hPa Calm     75% 0.3 mm
20:19 4.3 °C 0.1 °C 1017.5 hPa Calm     74% 0.3 mm
20:25 3.8 °C -0.4 °C 1017.5 hPa Calm     74% 0.3 mm
20:30 3.6 °C -0.7 °C 1017.5 hPa Calm     74% 0.3 mm
20:34 3.3 °C -0.7 °C 1017.5 hPa Calm     75% 0.3 mm
20:39 3.2 °C -0.8 °C 1017.5 hPa Calm     75% 0.3 mm
20:45 3.1 °C -0.8 °C 1017.5 hPa Calm     76% 0.3 mm
20:49 2.9 °C -0.9 °C 1017.5 hPa Calm     76% 0.3 mm
20:54 3 °C -0.8 °C 1017.5 hPa Calm     76% 0.3 mm
20:59 3.1 °C -0.7 °C 1017.5 hPa Calm     76% 0.3 mm
21:05 3.2 °C -0.7 °C 1017.5 hPa Calm     76% 0.3 mm
21:14 3.3 °C -0.3 °C 1017.5 hPa Calm     77% 0.3 mm
21:20 3.2 °C -0.7 °C 1017.8 hPa Calm     76% 0.3 mm
21:24 3.2 °C -0.4 °C 1017.8 hPa Calm     77% 0.3 mm
21:29 3.3 °C -0.2 °C 1017.8 hPa Calm     78% 0.3 mm
21:35 3.4 °C 0.2 °C 1017.8 hPa Calm     79% 0.3 mm
21:45 3.5 °C 0.4 °C 1017.8 hPa Calm     80% 0.3 mm
21:50 3.4 °C 0.2 °C 1017.8 hPa Calm     79% 0.3 mm
21:54 3.3 °C 0.1 °C 1017.8 hPa Calm     79% 0.3 mm
21:59 3.3 °C 0.2 °C 1017.8 hPa Calm     80% 0.3 mm
22:04 3.5 °C 0 °C 1017.8 hPa Calm     78% 0.3 mm
22:09 3.5 °C -0.2 °C 1017.8 hPa Calm     77% 0.3 mm
22:14 3.6 °C -0.3 °C 1017.8 hPa Calm     76% 0.3 mm
22:20 3.6 °C -0.4 °C 1017.8 hPa Calm     75% 0.3 mm
22:24 3.5 °C -0.3 °C 1017.8 hPa Calm     76% 0.3 mm
22:29 3.4 °C -0.4 °C 1017.8 hPa Calm     76% 0.3 mm
22:35 3.5 °C -0.3 °C 1017.8 hPa Calm     76% 0.3 mm
22:39 3.4 °C -0.6 °C 1017.8 hPa Calm     75% 0.3 mm
22:45 3.3 °C -0.7 °C 1017.8 hPa Calm     75% 0.3 mm
22:54 3.5 °C -0.5 °C 1017.8 hPa Calm     75% 0.3 mm
22:59 3.4 °C -0.8 °C 1017.8 hPa Calm     74% 0.3 mm
23:04 3.5 °C -0.9 °C 1017.8 hPa Calm     73% 0.3 mm
23:10 3.5 °C -0.5 °C 1018.2 hPa Calm     75% 0.3 mm
23:14 3.3 °C -0.6 °C 1018.2 hPa Calm     76% 0.3 mm
23:20 3.1 °C -0.6 °C 1018.2 hPa Calm     77% 0.3 mm
23:24 3.2 °C -0.1 °C 1018.2 hPa Calm     79% 0.3 mm
23:29 3.4 °C 0.2 °C 1018.2 hPa Calm     79% 0.3 mm
23:35 3.4 °C 0.1 °C 1018.2 hPa Calm     79% 0.3 mm
23:40 3.3 °C -0.2 °C 1018.2 hPa Calm     78% 0.3 mm
23:49 3.2 °C -0.4 °C 1018.2 hPa Calm     77% 0.3 mm
23:54 3.5 °C -0.5 °C 1018.2 hPa Calm     75% 0.3 mm
23:59 3.7 °C -0.6 °C 1018.2 hPa Calm     74% 0.3 mm
Westford Weather
Compliments of Weather Underground

 
 
Current Radar Loop:

Copyright © WestfordWeather.net 2007-2014. All rights reserved.